sensor_id;sensor_type;location;lat;lon;timestamp;pressure;altitude;pressure_sealevel;temperature;humidity
41886;BME280;27567;43.084;25.616;2023-06-10T00:02:31;97710.66;;;15.29;100.00
41886;BME280;27567;43.084;25.616;2023-06-10T00:05:15;97713.94;;;15.14;100.00
41886;BME280;27567;43.084;25.616;2023-06-10T00:08:00;97709.94;;;14.99;100.00
41886;BME280;27567;43.084;25.616;2023-06-10T00:10:51;97704.63;;;15.05;100.00
41886;BME280;27567;43.084;25.616;2023-06-10T00:13:34;97707.75;;;14.96;100.00
41886;BME280;27567;43.084;25.616;2023-06-10T00:16:19;97702.09;;;14.98;100.00
41886;BME280;27567;43.084;25.616;2023-06-10T00:19:03;97699.88;;;14.95;100.00
41886;BME280;27567;43.084;25.616;2023-06-10T00:21:47;97703.56;;;14.88;100.00
41886;BME280;27567;43.084;25.616;2023-06-10T00:24:31;97703.00;;;15.03;100.00
41886;BME280;27567;43.084;25.616;2023-06-10T00:27:15;97690.06;;;15.06;100.00
41886;BME280;27567;43.084;25.616;2023-06-10T00:29:59;97691.53;;;15.13;100.00
41886;BME280;27567;43.084;25.616;2023-06-10T00:32:43;97700.34;;;15.09;100.00
41886;BME280;27567;43.084;25.616;2023-06-10T00:35:27;97700.53;;;15.02;100.00
41886;BME280;27567;43.084;25.616;2023-06-10T00:38:13;97701.19;;;14.92;100.00
41886;BME280;27567;43.084;25.616;2023-06-10T00:40:58;97708.53;;;14.97;100.00
41886;BME280;27567;43.084;25.616;2023-06-10T00:43:42;97713.72;;;14.98;100.00
41886;BME280;27567;43.084;25.616;2023-06-10T00:46:26;97706.59;;;15.09;100.00
41886;BME280;27567;43.084;25.616;2023-06-10T00:49:10;97713.53;;;15.05;100.00
41886;BME280;27567;43.084;25.616;2023-06-10T00:51:55;97720.84;;;15.05;100.00
41886;BME280;27567;43.084;25.616;2023-06-10T00:54:39;97715.75;;;15.08;100.00
41886;BME280;27567;43.084;25.616;2023-06-10T00:57:23;97710.44;;;15.13;100.00
41886;BME280;27567;43.084;25.616;2023-06-10T01:00:07;97713.84;;;15.09;100.00
41886;BME280;27567;43.084;25.616;2023-06-10T01:02:52;97710.09;;;15.10;100.00
41886;BME280;27567;43.084;25.616;2023-06-10T01:05:40;97715.00;;;15.13;100.00
41886;BME280;27567;43.084;25.616;2023-06-10T01:11:36;97716.72;;;15.02;100.00
41886;BME280;27567;43.084;25.616;2023-06-10T01:14:24;97721.63;;;14.88;100.00
41886;BME280;27567;43.084;25.616;2023-06-10T01:17:09;97727.88;;;14.88;100.00
41886;BME280;27567;43.084;25.616;2023-06-10T01:19:56;97722.75;;;14.75;100.00
41886;BME280;27567;43.084;25.616;2023-06-10T01:22:41;97722.06;;;14.80;100.00
41886;BME280;27567;43.084;25.616;2023-06-10T01:25:27;97719.81;;;14.94;100.00
41886;BME280;27567;43.084;25.616;2023-06-10T01:28:28;97719.09;;;14.81;100.00
41886;BME280;27567;43.084;25.616;2023-06-10T01:31:18;97718.19;;;14.76;100.00
41886;BME280;27567;43.084;25.616;2023-06-10T01:34:10;97718.34;;;14.69;100.00
41886;BME280;27567;43.084;25.616;2023-06-10T01:36:55;97718.09;;;14.70;100.00
41886;BME280;27567;43.084;25.616;2023-06-10T01:39:42;97713.88;;;14.75;100.00
41886;BME280;27567;43.084;25.616;2023-06-10T01:42:27;97717.09;;;14.60;100.00
41886;BME280;27567;43.084;25.616;2023-06-10T01:45:12;97715.28;;;14.65;100.00
41886;BME280;27567;43.084;25.616;2023-06-10T01:47:55;97708.25;;;14.64;100.00
41886;BME280;27567;43.084;25.616;2023-06-10T01:50:39;97708.16;;;14.59;100.00
41886;BME280;27567;43.084;25.616;2023-06-10T01:53:24;97708.09;;;14.54;100.00
41886;BME280;27567;43.084;25.616;2023-06-10T01:56:08;97715.34;;;14.53;100.00
41886;BME280;27567;43.084;25.616;2023-06-10T01:58:52;97721.56;;;14.54;100.00
41886;BME280;27567;43.084;25.616;2023-06-10T02:01:38;97714.66;;;14.46;100.00
41886;BME280;27567;43.084;25.616;2023-06-10T02:04:22;97716.28;;;14.30;100.00
41886;BME280;27567;43.084;25.616;2023-06-10T02:07:06;97712.00;;;14.17;100.00
41886;BME280;27567;43.084;25.616;2023-06-10T02:09:50;97718.34;;;14.11;100.00
41886;BME280;27567;43.084;25.616;2023-06-10T02:12:34;97720.78;;;14.12;100.00
41886;BME280;27567;43.084;25.616;2023-06-10T02:15:18;97717.22;;;13.95;100.00
41886;BME280;27567;43.084;25.616;2023-06-10T02:18:02;97727.41;;;13.93;100.00
41886;BME280;27567;43.084;25.616;2023-06-10T02:20:46;97724.22;;;14.08;100.00
41886;BME280;27567;43.084;25.616;2023-06-10T02:23:30;97728.06;;;14.12;100.00
41886;BME280;27567;43.084;25.616;2023-06-10T02:26:14;97722.56;;;14.07;100.00
41886;BME280;27567;43.084;25.616;2023-06-10T02:28:58;97714.44;;;14.19;100.00
41886;BME280;27567;43.084;25.616;2023-06-10T02:31:42;97724.72;;;14.34;100.00
41886;BME280;27567;43.084;25.616;2023-06-10T02:34:26;97725.88;;;14.38;100.00
41886;BME280;27567;43.084;25.616;2023-06-10T02:37:11;97723.81;;;14.28;100.00
41886;BME280;27567;43.084;25.616;2023-06-10T02:39:55;97724.38;;;14.30;100.00
41886;BME280;27567;43.084;25.616;2023-06-10T02:42:39;97729.09;;;14.23;100.00
41886;BME280;27567;43.084;25.616;2023-06-10T02:45:23;97724.50;;;14.23;100.00
41886;BME280;27567;43.084;25.616;2023-06-10T02:48:07;97730.25;;;14.27;100.00
41886;BME280;27567;43.084;25.616;2023-06-10T02:50:51;97732.69;;;14.28;100.00
41886;BME280;27567;43.084;25.616;2023-06-10T02:53:35;97733.91;;;14.21;100.00
41886;BME280;27567;43.084;25.616;2023-06-10T02:56:19;97734.00;;;14.26;100.00
41886;BME280;27567;43.084;25.616;2023-06-10T02:59:03;97743.31;;;14.18;100.00
41886;BME280;27567;43.084;25.616;2023-06-10T03:01:47;97740.59;;;14.18;100.00
41886;BME280;27567;43.084;25.616;2023-06-10T03:04:31;97745.69;;;14.32;100.00
41886;BME280;27567;43.084;25.616;2023-06-10T03:07:15;97744.28;;;14.41;100.00
41886;BME280;27567;43.084;25.616;2023-06-10T03:09:59;97745.22;;;14.35;100.00
41886;BME280;27567;43.084;25.616;2023-06-10T03:12:43;97735.78;;;14.49;100.00
41886;BME280;27567;43.084;25.616;2023-06-10T03:15:28;97741.59;;;14.58;100.00
41886;BME280;27567;43.084;25.616;2023-06-10T03:18:12;97744.16;;;14.65;100.00
41886;BME280;27567;43.084;25.616;2023-06-10T03:20:56;97750.59;;;14.64;100.00
41886;BME280;27567;43.084;25.616;2023-06-10T03:23:40;97752.59;;;14.68;100.00
41886;BME280;27567;43.084;25.616;2023-06-10T03:26:25;97749.69;;;14.87;100.00
41886;BME280;27567;43.084;25.616;2023-06-10T03:29:11;97750.00;;;15.08;100.00
41886;BME280;27567;43.084;25.616;2023-06-10T03:31:55;97752.81;;;15.30;100.00
41886;BME280;27567;43.084;25.616;2023-06-10T03:34:38;97750.00;;;15.42;100.00
41886;BME280;27567;43.084;25.616;2023-06-10T03:37:23;97747.63;;;15.45;100.00
41886;BME280;27567;43.084;25.616;2023-06-10T03:40:08;97756.38;;;15.53;100.00
41886;BME280;27567;43.084;25.616;2023-06-10T03:42:52;97750.69;;;15.71;100.00
41886;BME280;27567;43.084;25.616;2023-06-10T03:45:36;97739.94;;;15.93;100.00
41886;BME280;27567;43.084;25.616;2023-06-10T03:48:21;97742.25;;;16.07;100.00
41886;BME280;27567;43.084;25.616;2023-06-10T03:51:05;97741.94;;;16.03;100.00
41886;BME280;27567;43.084;25.616;2023-06-10T03:53:49;97739.53;;;16.07;100.00
41886;BME280;27567;43.084;25.616;2023-06-10T03:56:33;97742.00;;;16.08;100.00
41886;BME280;27567;43.084;25.616;2023-06-10T03:59:17;97742.69;;;16.21;100.00
41886;BME280;27567;43.084;25.616;2023-06-10T04:02:01;97747.16;;;16.32;100.00
41886;BME280;27567;43.084;25.616;2023-06-10T04:04:45;97747.88;;;16.50;100.00
41886;BME280;27567;43.084;25.616;2023-06-10T04:07:29;97751.28;;;16.67;100.00
41886;BME280;27567;43.084;25.616;2023-06-10T04:10:15;97754.75;;;16.90;100.00
41886;BME280;27567;43.084;25.616;2023-06-10T04:12:59;97754.66;;;17.07;100.00
41886;BME280;27567;43.084;25.616;2023-06-10T04:15:43;97749.03;;;16.87;100.00
41886;BME280;27567;43.084;25.616;2023-06-10T04:18:27;97743.25;;;17.05;100.00
41886;BME280;27567;43.084;25.616;2023-06-10T04:21:11;97748.97;;;17.41;100.00
41886;BME280;27567;43.084;25.616;2023-06-10T04:23:55;97743.16;;;17.70;100.00
41886;BME280;27567;43.084;25.616;2023-06-10T04:26:39;97745.56;;;17.67;100.00
41886;BME280;27567;43.084;25.616;2023-06-10T04:29:23;97746.13;;;17.69;100.00
41886;BME280;27567;43.084;25.616;2023-06-10T04:32:07;97738.00;;;17.69;100.00
41886;BME280;27567;43.084;25.616;2023-06-10T04:34:51;97755.53;;;17.99;100.00
41886;BME280;27567;43.084;25.616;2023-06-10T04:37:35;97746.91;;;18.12;100.00
41886;BME280;27567;43.084;25.616;2023-06-10T04:40:19;97744.28;;;18.38;100.00
41886;BME280;27567;43.084;25.616;2023-06-10T04:43:04;97740.56;;;18.75;100.00
41886;BME280;27567;43.084;25.616;2023-06-10T04:45:48;97741.66;;;18.90;100.00
41886;BME280;27567;43.084;25.616;2023-06-10T04:48:32;97745.47;;;19.04;100.00
41886;BME280;27567;43.084;25.616;2023-06-10T04:51:19;97752.31;;;19.12;100.00
41886;BME280;27567;43.084;25.616;2023-06-10T04:54:02;97748.47;;;19.18;100.00
41886;BME280;27567;43.084;25.616;2023-06-10T04:56:47;97743.31;;;19.17;100.00
41886;BME280;27567;43.084;25.616;2023-06-10T04:59:31;97752.53;;;19.36;100.00
41886;BME280;27567;43.084;25.616;2023-06-10T05:02:16;97760.16;;;19.50;100.00
41886;BME280;27567;43.084;25.616;2023-06-10T05:05:00;97751.97;;;19.60;100.00
41886;BME280;27567;43.084;25.616;2023-06-10T05:07:45;97751.66;;;19.67;100.00
41886;BME280;27567;43.084;25.616;2023-06-10T05:10:29;97753.59;;;19.66;100.00
41886;BME280;27567;43.084;25.616;2023-06-10T05:13:16;97757.09;;;19.67;100.00
41886;BME280;27567;43.084;25.616;2023-06-10T05:16:01;97759.56;;;19.68;100.00
41886;BME280;27567;43.084;25.616;2023-06-10T05:18:45;97763.34;;;19.78;100.00
41886;BME280;27567;43.084;25.616;2023-06-10T05:21:29;97759.88;;;19.41;100.00
41886;BME280;27567;43.084;25.616;2023-06-10T05:24:13;97751.72;;;19.57;100.00
41886;BME280;27567;43.084;25.616;2023-06-10T05:26:57;97749.47;;;19.85;100.00
41886;BME280;27567;43.084;25.616;2023-06-10T05:29:41;97752.75;;;19.81;100.00
41886;BME280;27567;43.084;25.616;2023-06-10T05:32:25;97748.75;;;20.34;100.00
41886;BME280;27567;43.084;25.616;2023-06-10T05:35:09;97745.16;;;20.89;100.00
41886;BME280;27567;43.084;25.616;2023-06-10T05:37:53;97743.31;;;20.84;100.00
41886;BME280;27567;43.084;25.616;2023-06-10T05:40:37;97742.03;;;20.61;100.00
41886;BME280;27567;43.084;25.616;2023-06-10T05:43:20;97740.59;;;20.79;100.00
41886;BME280;27567;43.084;25.616;2023-06-10T05:46:04;97742.69;;;20.48;100.00
41886;BME280;27567;43.084;25.616;2023-06-10T05:48:48;97746.19;;;20.53;100.00
41886;BME280;27567;43.084;25.616;2023-06-10T05:51:32;97743.66;;;20.67;100.00
41886;BME280;27567;43.084;25.616;2023-06-10T05:54:16;97753.41;;;21.19;100.00
41886;BME280;27567;43.084;25.616;2023-06-10T05:57:00;97754.63;;;21.90;100.00
41886;BME280;27567;43.084;25.616;2023-06-10T05:59:44;97756.38;;;22.49;100.00
41886;BME280;27567;43.084;25.616;2023-06-10T06:02:28;97758.25;;;22.29;100.00
41886;BME280;27567;43.084;25.616;2023-06-10T06:05:12;97757.38;;;22.58;100.00
41886;BME280;27567;43.084;25.616;2023-06-10T06:07:57;97757.63;;;22.57;100.00
41886;BME280;27567;43.084;25.616;2023-06-10T06:10:47;97763.84;;;22.19;100.00
41886;BME280;27567;43.084;25.616;2023-06-10T06:13:34;97756.44;;;22.44;100.00
41886;BME280;27567;43.084;25.616;2023-06-10T06:16:19;97755.44;;;22.15;100.00
41886;BME280;27567;43.084;25.616;2023-06-10T06:19:03;97761.47;;;21.64;100.00
41886;BME280;27567;43.084;25.616;2023-06-10T06:21:47;97764.50;;;20.93;100.00
41886;BME280;27567;43.084;25.616;2023-06-10T06:24:30;97765.69;;;20.76;100.00
41886;BME280;27567;43.084;25.616;2023-06-10T06:27:15;97763.88;;;21.01;100.00
41886;BME280;27567;43.084;25.616;2023-06-10T06:29:59;97761.63;;;21.13;100.00
41886;BME280;27567;43.084;25.616;2023-06-10T06:32:43;97763.13;;;21.25;100.00
41886;BME280;27567;43.084;25.616;2023-06-10T06:35:30;97765.53;;;20.97;100.00
41886;BME280;27567;43.084;25.616;2023-06-10T06:38:14;97757.72;;;21.20;100.00
41886;BME280;27567;43.084;25.616;2023-06-10T06:40:58;97761.31;;;20.80;100.00
41886;BME280;27567;43.084;25.616;2023-06-10T06:43:46;97760.41;;;20.90;100.00
41886;BME280;27567;43.084;25.616;2023-06-10T06:46:30;97755.13;;;21.04;100.00
41886;BME280;27567;43.084;25.616;2023-06-10T06:49:14;97763.25;;;20.69;100.00
41886;BME280;27567;43.084;25.616;2023-06-10T06:51:58;97758.81;;;20.39;100.00
41886;BME280;27567;43.084;25.616;2023-06-10T06:54:42;97758.13;;;20.07;100.00
41886;BME280;27567;43.084;25.616;2023-06-10T06:57:26;97758.28;;;20.32;100.00
41886;BME280;27567;43.084;25.616;2023-06-10T07:00:10;97760.41;;;20.45;100.00
41886;BME280;27567;43.084;25.616;2023-06-10T07:02:54;97756.00;;;20.49;100.00
41886;BME280;27567;43.084;25.616;2023-06-10T07:05:39;97760.19;;;20.31;100.00
41886;BME280;27567;43.084;25.616;2023-06-10T07:08:22;97759.25;;;20.51;100.00
41886;BME280;27567;43.084;25.616;2023-06-10T07:11:06;97762.50;;;19.98;100.00
41886;BME280;27567;43.084;25.616;2023-06-10T07:13:50;97758.47;;;19.70;100.00
41886;BME280;27567;43.084;25.616;2023-06-10T07:16:34;97767.13;;;19.82;100.00
41886;BME280;27567;43.084;25.616;2023-06-10T07:19:18;97767.69;;;19.79;100.00
41886;BME280;27567;43.084;25.616;2023-06-10T07:22:03;97766.34;;;19.66;100.00
41886;BME280;27567;43.084;25.616;2023-06-10T07:24:47;97769.69;;;19.32;100.00
41886;BME280;27567;43.084;25.616;2023-06-10T07:27:31;97772.94;;;19.34;100.00
41886;BME280;27567;43.084;25.616;2023-06-10T07:30:15;97770.13;;;19.96;100.00
41886;BME280;27567;43.084;25.616;2023-06-10T07:33:00;97759.34;;;20.86;100.00
41886;BME280;27567;43.084;25.616;2023-06-10T07:35:44;97760.03;;;21.07;100.00
41886;BME280;27567;43.084;25.616;2023-06-10T07:38:29;97760.38;;;21.89;100.00
41886;BME280;27567;43.084;25.616;2023-06-10T07:41:13;97765.03;;;22.75;100.00
41886;BME280;27567;43.084;25.616;2023-06-10T07:43:57;97763.84;;;22.43;100.00
41886;BME280;27567;43.084;25.616;2023-06-10T07:46:41;97759.06;;;22.30;100.00
41886;BME280;27567;43.084;25.616;2023-06-10T07:49:25;97762.97;;;22.24;100.00
41886;BME280;27567;43.084;25.616;2023-06-10T07:52:09;97754.81;;;22.43;100.00
41886;BME280;27567;43.084;25.616;2023-06-10T07:54:53;97764.88;;;22.66;100.00
41886;BME280;27567;43.084;25.616;2023-06-10T07:57:37;97755.44;;;22.59;100.00
41886;BME280;27567;43.084;25.616;2023-06-10T08:00:22;97756.41;;;23.20;100.00
41886;BME280;27567;43.084;25.616;2023-06-10T08:03:07;97761.63;;;23.22;100.00
41886;BME280;27567;43.084;25.616;2023-06-10T08:05:51;97761.72;;;23.92;100.00
41886;BME280;27567;43.084;25.616;2023-06-10T08:08:35;97758.50;;;24.17;100.00
41886;BME280;27567;43.084;25.616;2023-06-10T08:11:23;97752.50;;;23.74;100.00
41886;BME280;27567;43.084;25.616;2023-06-10T08:14:08;97752.84;;;24.00;100.00
41886;BME280;27567;43.084;25.616;2023-06-10T08:16:52;97757.69;;;23.89;100.00
41886;BME280;27567;43.084;25.616;2023-06-10T08:19:36;97743.84;;;24.50;100.00
41886;BME280;27567;43.084;25.616;2023-06-10T08:22:20;97746.75;;;24.31;100.00
41886;BME280;27567;43.084;25.616;2023-06-10T08:25:04;97753.00;;;23.76;100.00
41886;BME280;27567;43.084;25.616;2023-06-10T08:27:48;97748.19;;;23.39;100.00
41886;BME280;27567;43.084;25.616;2023-06-10T08:30:34;97745.09;;;23.74;100.00
41886;BME280;27567;43.084;25.616;2023-06-10T08:33:18;97731.31;;;24.21;100.00
41886;BME280;27567;43.084;25.616;2023-06-10T08:36:02;97741.69;;;24.75;100.00
41886;BME280;27567;43.084;25.616;2023-06-10T08:38:46;97743.53;;;24.66;100.00
41886;BME280;27567;43.084;25.616;2023-06-10T08:41:37;97750.25;;;24.59;100.00
41886;BME280;27567;43.084;25.616;2023-06-10T08:44:35;97753.03;;;24.82;100.00
41886;BME280;27567;43.084;25.616;2023-06-10T08:47:23;97742.75;;;25.56;100.00
41886;BME280;27567;43.084;25.616;2023-06-10T08:50:09;97753.84;;;24.83;100.00
41886;BME280;27567;43.084;25.616;2023-06-10T08:52:57;97751.03;;;24.74;100.00
41886;BME280;27567;43.084;25.616;2023-06-10T08:55:43;97748.06;;;24.20;100.00
41886;BME280;27567;43.084;25.616;2023-06-10T08:58:32;97746.59;;;24.50;100.00
41886;BME280;27567;43.084;25.616;2023-06-10T09:01:17;97742.13;;;24.91;100.00
41886;BME280;27567;43.084;25.616;2023-06-10T09:04:02;97739.25;;;25.42;100.00
41886;BME280;27567;43.084;25.616;2023-06-10T09:06:46;97740.44;;;25.49;100.00
41886;BME280;27567;43.084;25.616;2023-06-10T09:09:34;97738.63;;;25.76;100.00
41886;BME280;27567;43.084;25.616;2023-06-10T09:12:19;97740.66;;;25.93;100.00
41886;BME280;27567;43.084;25.616;2023-06-10T09:15:04;97736.28;;;25.92;100.00
41886;BME280;27567;43.084;25.616;2023-06-10T09:17:49;97730.66;;;25.98;100.00
41886;BME280;27567;43.084;25.616;2023-06-10T09:20:33;97732.66;;;25.74;100.00
41886;BME280;27567;43.084;25.616;2023-06-10T09:23:17;97739.47;;;25.00;100.00
41886;BME280;27567;43.084;25.616;2023-06-10T09:26:02;97732.34;;;25.21;100.00
41886;BME280;27567;43.084;25.616;2023-06-10T09:28:49;97733.34;;;24.80;100.00
41886;BME280;27567;43.084;25.616;2023-06-10T09:31:38;97722.66;;;25.15;100.00
41886;BME280;27567;43.084;25.616;2023-06-10T09:34:25;97720.09;;;24.73;100.00
41886;BME280;27567;43.084;25.616;2023-06-10T09:37:09;97711.94;;;24.82;100.00
41886;BME280;27567;43.084;25.616;2023-06-10T09:42:53;97719.19;;;26.04;100.00
41886;BME280;27567;43.084;25.616;2023-06-10T09:45:38;97711.38;;;26.29;100.00
41886;BME280;27567;43.084;25.616;2023-06-10T09:48:23;97710.72;;;26.41;100.00
41886;BME280;27567;43.084;25.616;2023-06-10T09:51:09;97709.09;;;26.31;100.00
41886;BME280;27567;43.084;25.616;2023-06-10T09:53:54;97706.38;;;26.40;100.00
41886;BME280;27567;43.084;25.616;2023-06-10T09:56:38;97701.50;;;27.16;100.00
41886;BME280;27567;43.084;25.616;2023-06-10T09:59:29;97705.97;;;27.38;100.00
41886;BME280;27567;43.084;25.616;2023-06-10T10:02:16;97698.00;;;27.63;100.00
41886;BME280;27567;43.084;25.616;2023-06-10T10:05:04;97697.38;;;28.47;100.00
41886;BME280;27567;43.084;25.616;2023-06-10T10:07:49;97707.03;;;28.32;100.00
41886;BME280;27567;43.084;25.616;2023-06-10T10:10:33;97699.44;;;27.99;100.00
41886;BME280;27567;43.084;25.616;2023-06-10T10:13:18;97690.16;;;28.98;100.00
41886;BME280;27567;43.084;25.616;2023-06-10T10:16:09;97683.09;;;30.17;100.00
41886;BME280;27567;43.084;25.616;2023-06-10T10:18:56;97691.81;;;29.45;100.00
41886;BME280;27567;43.084;25.616;2023-06-10T10:21:54;97692.97;;;29.81;100.00
41886;BME280;27567;43.084;25.616;2023-06-10T10:24:43;97689.06;;;31.61;100.00
41886;BME280;27567;43.084;25.616;2023-06-10T10:27:44;97686.94;;;31.10;100.00
41886;BME280;27567;43.084;25.616;2023-06-10T10:30:39;97687.47;;;31.28;100.00
41886;BME280;27567;43.084;25.616;2023-06-10T10:33:59;97679.75;;;34.36;97.64
41886;BME280;27567;43.084;25.616;2023-06-10T10:36:44;97672.31;;;34.44;97.60
41886;BME280;27567;43.084;25.616;2023-06-10T10:39:29;97680.16;;;33.15;100.00
41886;BME280;27567;43.084;25.616;2023-06-10T10:42:15;97683.28;;;30.37;100.00
41886;BME280;27567;43.084;25.616;2023-06-10T10:45:00;97668.31;;;30.95;100.00
41886;BME280;27567;43.084;25.616;2023-06-10T10:47:46;97668.97;;;33.54;100.00
41886;BME280;27567;43.084;25.616;2023-06-10T10:50:30;97661.88;;;33.83;90.09
41886;BME280;27567;43.084;25.616;2023-06-10T10:53:19;97665.56;;;33.64;91.20
41886;BME280;27567;43.084;25.616;2023-06-10T10:59:05;97663.25;;;35.60;77.00
41886;BME280;27567;43.084;25.616;2023-06-10T11:01:49;97649.84;;;36.40;71.07
41886;BME280;27567;43.084;25.616;2023-06-10T11:04:35;97657.72;;;38.13;66.66
41886;BME280;27567;43.084;25.616;2023-06-10T11:07:20;97640.44;;;40.55;58.26
41886;BME280;27567;43.084;25.616;2023-06-10T11:10:10;97655.53;;;38.75;60.95
41886;BME280;27567;43.084;25.616;2023-06-10T11:12:56;97645.78;;;37.58;69.31
41886;BME280;27567;43.084;25.616;2023-06-10T11:15:45;97638.59;;;39.57;62.08
41886;BME280;27567;43.084;25.616;2023-06-10T11:18:39;97641.28;;;41.65;53.99
41886;BME280;27567;43.084;25.616;2023-06-10T11:21:24;97630.66;;;39.94;59.51
41886;BME280;27567;43.084;25.616;2023-06-10T11:24:13;97630.47;;;39.70;59.17
41886;BME280;27567;43.084;25.616;2023-06-10T11:27:22;97621.00;;;37.03;75.92
41886;BME280;27567;43.084;25.616;2023-06-10T11:30:17;97619.81;;;37.51;74.61
41886;BME280;27567;43.084;25.616;2023-06-10T11:33:02;97621.41;;;37.30;71.62
41886;BME280;27567;43.084;25.616;2023-06-10T11:35:47;97628.47;;;36.77;71.41
41886;BME280;27567;43.084;25.616;2023-06-10T11:38:31;97615.91;;;36.23;76.47
41886;BME280;27567;43.084;25.616;2023-06-10T11:41:15;97616.53;;;36.80;77.36
41886;BME280;27567;43.084;25.616;2023-06-10T11:44:04;97616.28;;;35.59;86.38
41886;BME280;27567;43.084;25.616;2023-06-10T11:46:48;97607.16;;;35.62;89.43
41886;BME280;27567;43.084;25.616;2023-06-10T11:49:33;97588.22;;;36.92;79.85
41886;BME280;27567;43.084;25.616;2023-06-10T11:52:26;97592.41;;;38.53;63.87
41886;BME280;27567;43.084;25.616;2023-06-10T11:55:11;97584.16;;;38.24;65.96
41886;BME280;27567;43.084;25.616;2023-06-10T11:57:54;97579.47;;;37.34;65.26
41886;BME280;27567;43.084;25.616;2023-06-10T12:03:36;97579.47;;;37.81;63.08
41886;BME280;27567;43.084;25.616;2023-06-10T12:06:24;97573.44;;;40.22;54.22
41886;BME280;27567;43.084;25.616;2023-06-10T12:09:25;97563.28;;;39.10;58.54
41886;BME280;27567;43.084;25.616;2023-06-10T12:12:10;97581.56;;;33.75;98.45
41886;BME280;27567;43.084;25.616;2023-06-10T12:14:57;97570.88;;;30.85;100.00
41886;BME280;27567;43.084;25.616;2023-06-10T12:17:42;97576.94;;;30.06;100.00
41886;BME280;27567;43.084;25.616;2023-06-10T12:20:28;97577.72;;;33.56;95.62
41886;BME280;27567;43.084;25.616;2023-06-10T12:23:13;97572.25;;;36.82;79.25
41886;BME280;27567;43.084;25.616;2023-06-10T12:25:59;97562.19;;;39.00;65.63
41886;BME280;27567;43.084;25.616;2023-06-10T12:28:50;97557.00;;;39.44;54.68
41886;BME280;27567;43.084;25.616;2023-06-10T12:31:58;97564.94;;;38.22;61.52
41886;BME280;27567;43.084;25.616;2023-06-10T12:34:42;97560.50;;;38.43;59.88
41886;BME280;27567;43.084;25.616;2023-06-10T12:37:26;97552.88;;;38.47;60.07
41886;BME280;27567;43.084;25.616;2023-06-10T12:40:10;97561.53;;;37.06;61.89
41886;BME280;27567;43.084;25.616;2023-06-10T12:42:55;97566.31;;;36.94;60.24
41886;BME280;27567;43.084;25.616;2023-06-10T12:45:41;97563.06;;;37.94;56.45
41886;BME280;27567;43.084;25.616;2023-06-10T12:48:28;97554.09;;;40.59;46.34
41886;BME280;27567;43.084;25.616;2023-06-10T12:51:12;97551.88;;;36.67;52.06
41886;BME280;27567;43.084;25.616;2023-06-10T12:53:56;97561.78;;;35.69;56.08
41886;BME280;27567;43.084;25.616;2023-06-10T12:56:41;97559.13;;;37.15;52.02
41886;BME280;27567;43.084;25.616;2023-06-10T12:59:25;97550.56;;;38.27;51.56
41886;BME280;27567;43.084;25.616;2023-06-10T13:02:09;97546.28;;;37.83;54.54
41886;BME280;27567;43.084;25.616;2023-06-10T13:04:54;97553.63;;;38.58;48.84
41886;BME280;27567;43.084;25.616;2023-06-10T13:07:39;97548.13;;;39.04;46.87
41886;BME280;27567;43.084;25.616;2023-06-10T13:10:23;97546.44;;;39.14;46.00
41886;BME280;27567;43.084;25.616;2023-06-10T13:13:07;97545.31;;;38.37;48.67
41886;BME280;27567;43.084;25.616;2023-06-10T13:15:53;97538.34;;;37.59;48.01
41886;BME280;27567;43.084;25.616;2023-06-10T13:18:37;97545.38;;;38.97;42.19
41886;BME280;27567;43.084;25.616;2023-06-10T13:21:22;97544.97;;;39.47;45.50
41886;BME280;27567;43.084;25.616;2023-06-10T13:24:06;97531.78;;;38.24;46.54
41886;BME280;27567;43.084;25.616;2023-06-10T13:26:50;97541.47;;;36.49;49.58
41886;BME280;27567;43.084;25.616;2023-06-10T13:29:33;97546.84;;;35.99;54.86
41886;BME280;27567;43.084;25.616;2023-06-10T13:32:17;97537.56;;;33.26;72.00
41886;BME280;27567;43.084;25.616;2023-06-10T13:35:02;97553.09;;;30.42;100.00
41886;BME280;27567;43.084;25.616;2023-06-10T13:37:46;97553.22;;;28.80;100.00
41886;BME280;27567;43.084;25.616;2023-06-10T13:40:30;97558.41;;;28.06;100.00
41886;BME280;27567;43.084;25.616;2023-06-10T13:43:14;97556.75;;;27.33;100.00
41886;BME280;27567;43.084;25.616;2023-06-10T13:45:59;97555.91;;;26.28;100.00
41886;BME280;27567;43.084;25.616;2023-06-10T13:48:43;97552.75;;;25.59;100.00
41886;BME280;27567;43.084;25.616;2023-06-10T13:51:27;97556.72;;;25.35;100.00
41886;BME280;27567;43.084;25.616;2023-06-10T13:54:11;97559.06;;;25.60;100.00
41886;BME280;27567;43.084;25.616;2023-06-10T13:56:58;97554.44;;;25.87;100.00
41886;BME280;27567;43.084;25.616;2023-06-10T13:59:43;97550.22;;;25.98;100.00
41886;BME280;27567;43.084;25.616;2023-06-10T14:02:27;97547.31;;;26.38;100.00
41886;BME280;27567;43.084;25.616;2023-06-10T14:05:11;97550.81;;;26.74;100.00
41886;BME280;27567;43.084;25.616;2023-06-10T14:07:56;97553.84;;;26.90;100.00
41886;BME280;27567;43.084;25.616;2023-06-10T14:10:40;97550.69;;;27.18;100.00
41886;BME280;27567;43.084;25.616;2023-06-10T14:13:24;97547.06;;;27.65;100.00
41886;BME280;27567;43.084;25.616;2023-06-10T14:16:08;97538.94;;;27.69;100.00
41886;BME280;27567;43.084;25.616;2023-06-10T14:18:52;97544.03;;;28.00;100.00
41886;BME280;27567;43.084;25.616;2023-06-10T14:21:36;97526.31;;;29.77;100.00
41886;BME280;27567;43.084;25.616;2023-06-10T14:24:20;97524.81;;;30.93;99.21
41886;BME280;27567;43.084;25.616;2023-06-10T14:27:04;97523.16;;;35.67;67.83
41886;BME280;27567;43.084;25.616;2023-06-10T14:29:49;97513.13;;;37.96;53.49